Time;durP1;ratioP1;P1;durP2;ratioP2;P2;SDS_P1;SDS_P2;PMS_P1;PMS_P2;Temp;Humidity;BMP_temperature;BMP_pressure;BME280_temperature;BME280_humidity;BME280_pressure;Samples;Min_cycle;Max_cycle;Signal;HPM_P1;HPM_P2
2022/10/08 00:02:17;;;;;;;5.43;1.55;;;14.00;68.90;;;;;;5134228;27;20452;-73
2022/10/08 00:04:42;;;;;;;6.00;1.83;;;14.00;68.90;;;;;;5134504;27;20401;-73
2022/10/08 00:07:08;;;;;;;7.55;1.95;;;14.00;69.00;;;;;;5117460;27;20496;-73
2022/10/08 00:09:34;;;;;;;4.82;1.60;;;14.00;69.00;;;;;;5113049;27;20043;-73
2022/10/08 00:11:59;;;;;;;5.00;1.63;;;14.00;69.00;;;;;;5117342;27;20035;-73
2022/10/08 00:14:25;;;;;;;6.47;1.35;;;14.10;69.10;;;;;;5117596;27;20502;-73
2022/10/08 00:16:50;;;;;;;4.30;1.35;;;14.00;69.10;;;;;;5134459;27;20046;-73
2022/10/08 00:19:16;;;;;;;4.28;1.20;;;14.00;69.10;;;;;;5134490;27;20035;-73
2022/10/08 00:21:44;;;;;;;5.00;1.60;;;14.00;69.00;;;;;;5133954;27;20526;-72
2022/10/08 00:24:16;;;;;;;4.22;1.10;;;14.00;69.10;;;;;;5134115;27;20504;-72
2022/10/08 00:26:42;;;;;;;3.65;1.25;;;14.00;69.20;;;;;;5133603;27;20074;-73
2022/10/08 00:29:09;;;;;;;3.95;1.15;;;14.00;69.20;;;;;;5133813;27;20034;-72
2022/10/08 00:31:39;;;;;;;3.92;1.65;;;14.00;69.30;;;;;;5116935;27;20039;-72
2022/10/08 00:34:09;;;;;;;2.38;1.00;;;14.00;69.40;;;;;;5133770;27;20084;-72
2022/10/08 00:36:36;;;;;;;2.58;1.10;;;14.00;69.50;;;;;;5133680;27;20087;-73
2022/10/08 00:39:14;;;;;;;3.70;1.48;;;14.00;69.70;;;;;;5134155;27;20039;-72
2022/10/08 00:41:43;;;;;;;6.00;1.33;;;14.00;70.10;;;;;;5133661;27;20039;-72
2022/10/08 00:44:42;;;;;;;5.65;1.60;;;14.00;70.30;;;;;;5133783;27;20051;-72
2022/10/08 00:47:32;;;;;;;4.80;1.80;;;14.00;70.60;;;;;;5133796;27;20129;-72
2022/10/08 00:50:14;;;;;;;6.30;1.67;;;14.00;70.90;;;;;;5133685;27;20451;-72
2022/10/08 00:52:47;;;;;;;6.32;1.90;;;14.00;71.20;;;;;;5142661;27;20498;-73
2022/10/08 00:55:15;;;;;;;5.77;1.77;;;14.00;71.30;;;;;;5133502;27;20042;-73
2022/10/08 00:57:42;;;;;;;7.32;1.95;;;14.00;71.30;;;;;;5133757;27;20393;-73
2022/10/08 01:00:15;;;;;;;5.50;1.90;;;13.90;71.50;;;;;;5133901;27;20452;-73
2022/10/08 01:02:41;;;;;;;5.75;2.30;;;13.90;71.70;;;;;;5142823;27;20046;-72
2022/10/08 01:05:08;;;;;;;5.75;2.00;;;13.90;71.70;;;;;;5116532;27;20035;-72
2022/10/08 01:07:48;;;;;;;4.40;2.00;;;13.90;71.70;;;;;;5133364;27;20466;-73
2022/10/08 01:10:26;;;;;;;6.22;2.00;;;13.90;71.80;;;;;;5132788;27;20035;-72
2022/10/08 01:13:10;;;;;;;4.47;1.30;;;13.90;71.90;;;;;;5132917;27;20398;-72
2022/10/08 01:15:40;;;;;;;5.05;2.30;;;13.90;71.80;;;;;;5132819;27;20184;-72
2022/10/08 01:18:30;;;;;;;6.40;1.70;;;13.90;71.90;;;;;;5116186;27;20065;-72
2022/10/08 01:21:18;;;;;;;4.63;2.17;;;13.90;71.90;;;;;;5132973;27;20402;-72
2022/10/08 01:24:02;;;;;;;5.82;1.73;;;13.90;71.90;;;;;;5132780;27;20039;-72
2022/10/08 01:26:56;;;;;;;4.18;1.52;;;13.90;71.80;;;;;;5133375;27;20390;-72
2022/10/08 01:29:28;;;;;;;3.80;1.23;;;13.90;71.70;;;;;;5122886;27;20047;-72
2022/10/08 01:32:06;;;;;;;4.88;1.40;;;13.90;71.60;;;;;;5132888;27;20039;-72
2022/10/08 01:34:42;;;;;;;5.97;2.08;;;13.90;71.60;;;;;;5129268;27;20042;-73
2022/10/08 01:37:15;;;;;;;6.22;1.92;;;13.90;71.70;;;;;;5132525;27;20050;-73
2022/10/08 01:39:45;;;;;;;4.95;1.83;;;13.90;71.70;;;;;;5131991;27;20486;-72
2022/10/08 01:42:11;;;;;;;5.00;1.88;;;13.90;71.70;;;;;;5131843;27;20039;-73
2022/10/08 01:44:45;;;;;;;4.65;1.50;;;13.90;71.60;;;;;;5132289;27;20064;-73
2022/10/08 01:47:15;;;;;;;4.80;1.90;;;13.90;71.60;;;;;;5132656;27;20444;-73
2022/10/08 01:49:54;;;;;;;6.28;1.75;;;13.90;71.40;;;;;;5133053;27;20043;-73
2022/10/08 01:52:27;;;;;;;4.63;1.85;;;13.90;71.40;;;;;;5132655;27;20483;-73
2022/10/08 01:55:00;;;;;;;4.90;1.65;;;13.90;71.50;;;;;;5132752;27;20039;-73
2022/10/08 01:57:29;;;;;;;6.95;1.83;;;13.90;71.80;;;;;;5118169;27;20039;-73
2022/10/08 02:00:05;;;;;;;5.47;1.58;;;13.90;71.40;;;;;;5129350;27;20043;-73
2022/10/08 02:02:31;;;;;;;3.80;1.50;;;13.90;71.60;;;;;;5132546;27;20043;-73
2022/10/08 02:04:56;;;;;;;4.18;1.92;;;13.90;71.50;;;;;;5130059;27;20371;-73
2022/10/08 02:07:29;;;;;;;4.68;1.45;;;13.90;71.30;;;;;;5131751;27;20108;-73
2022/10/08 02:10:18;;;;;;;5.38;1.30;;;13.90;71.30;;;;;;5132372;27;20148;-73
2022/10/08 02:12:44;;;;;;;5.40;1.83;;;13.90;71.10;;;;;;5132350;27;20038;-73
2022/10/08 02:15:19;;;;;;;4.15;1.25;;;13.90;71.10;;;;;;5132300;27;20035;-73
2022/10/08 02:18:17;;;;;;;4.00;1.52;;;13.90;71.10;;;;;;5132221;27;20497;-73
2022/10/08 02:20:51;;;;;;;6.10;1.67;;;13.90;71.00;;;;;;5115228;28;20054;-72
2022/10/08 02:23:24;;;;;;;4.90;1.20;;;13.90;70.90;;;;;;5131962;27;20578;-72
2022/10/08 02:26:00;;;;;;;5.25;1.30;;;13.80;70.90;;;;;;5132355;27;20039;-72
2022/10/08 02:28:48;;;;;;;4.45;1.42;;;13.80;70.90;;;;;;5132043;28;20043;-72
2022/10/08 02:31:20;;;;;;;4.68;1.58;;;13.80;70.80;;;;;;5131972;27;20072;-72
2022/10/08 02:33:58;;;;;;;4.00;1.20;;;13.70;70.70;;;;;;5131757;27;20167;-72
2022/10/08 02:36:35;;;;;;;5.13;1.38;;;13.70;70.80;;;;;;5129994;27;20096;-72
2022/10/08 02:39:04;;;;;;;5.32;1.70;;;13.70;70.70;;;;;;5130591;27;20118;-72
2022/10/08 02:41:43;;;;;;;5.75;1.38;;;13.70;70.70;;;;;;5132266;28;20379;-72
2022/10/08 02:44:17;;;;;;;4.63;1.05;;;13.70;70.70;;;;;;5115067;28;20104;-72
2022/10/08 02:46:48;;;;;;;7.03;2.60;;;13.60;70.50;;;;;;5131428;27;20047;-72
2022/10/08 02:49:20;;;;;;;7.22;1.90;;;13.60;70.50;;;;;;5114772;28;20118;-72
2022/10/08 02:51:48;;;;;;;3.78;1.20;;;13.60;70.60;;;;;;5132679;27;20032;-73
2022/10/08 02:54:17;;;;;;;2.40;1.05;;;13.60;70.50;;;;;;5135632;27;20035;-72
2022/10/08 02:56:58;;;;;;;3.78;1.20;;;13.50;70.40;;;;;;5119266;27;20069;-72
2022/10/08 02:59:24;;;;;;;3.08;1.30;;;13.50;70.40;;;;;;5135674;27;20043;-72
2022/10/08 03:01:58;;;;;;;4.80;1.20;;;13.50;70.40;;;;;;5135498;27;20491;-72
2022/10/08 03:04:26;;;;;;;3.60;1.33;;;13.50;70.40;;;;;;5135469;27;20410;-72
2022/10/08 03:06:53;;;;;;;3.95;1.20;;;13.50;70.40;;;;;;5135185;27;20114;-72
2022/10/08 03:09:22;;;;;;;3.85;1.45;;;13.50;70.40;;;;;;5135302;27;20047;-72
2022/10/08 03:11:48;;;;;;;3.50;1.02;;;13.40;70.40;;;;;;5135768;27;20046;-72
2022/10/08 03:14:17;;;;;;;4.25;1.45;;;13.40;70.40;;;;;;5135853;27;20104;-72
2022/10/08 03:16:45;;;;;;;3.22;1.05;;;13.40;70.60;;;;;;5135263;27;20037;-72
2022/10/08 03:19:14;;;;;;;3.50;1.38;;;13.30;70.50;;;;;;5135594;27;20075;-72
2022/10/08 03:21:42;;;;;;;5.32;1.73;;;13.30;70.50;;;;;;5135496;27;20498;-72
2022/10/08 03:24:10;;;;;;;4.43;1.10;;;13.40;70.50;;;;;;5117931;27;20049;-73
2022/10/08 03:26:36;;;;;;;6.35;1.65;;;13.30;70.50;;;;;;5135262;27;20516;-72
2022/10/08 03:29:02;;;;;;;2.83;1.23;;;13.30;70.50;;;;;;5135119;27;20031;-72
2022/10/08 03:31:28;;;;;;;5.07;1.70;;;13.30;70.60;;;;;;5135157;27;20379;-72
2022/10/08 03:33:54;;;;;;;7.38;1.70;;;13.30;70.60;;;;;;5135282;27;20035;-72
2022/10/08 03:36:22;;;;;;;4.35;1.30;;;13.20;70.60;;;;;;5134987;27;20110;-72
2022/10/08 03:38:48;;;;;;;4.47;1.48;;;13.20;70.70;;;;;;5134989;27;20444;-72
2022/10/08 03:41:14;;;;;;;5.85;1.30;;;13.20;70.70;;;;;;5134794;27;20033;-72
2022/10/08 03:43:40;;;;;;;3.55;1.30;;;13.20;70.90;;;;;;5135073;27;20054;-72
2022/10/08 03:46:08;;;;;;;4.32;1.98;;;13.20;71.00;;;;;;5118024;27;20486;-72
2022/10/08 03:48:34;;;;;;;2.63;1.02;;;13.10;71.10;;;;;;5134670;27;20066;-72
2022/10/08 03:51:09;;;;;;;7.45;2.00;;;13.20;71.30;;;;;;5117769;27;20114;-72
2022/10/08 03:53:37;;;;;;;5.53;1.52;;;13.10;71.30;;;;;;5134767;27;20043;-72
2022/10/08 03:56:15;;;;;;;3.78;1.38;;;13.10;71.50;;;;;;5117540;27;20043;-72
2022/10/08 03:58:41;;;;;;;7.13;1.70;;;13.10;72.10;;;;;;5104634;27;20046;-72
2022/10/08 04:01:16;;;;;;;6.25;1.83;;;13.10;71.80;;;;;;5134826;27;20054;-72
2022/10/08 04:03:44;;;;;;;5.03;1.90;;;13.10;72.00;;;;;;5133230;27;20110;-72
2022/10/08 04:06:10;;;;;;;6.50;1.95;;;13.10;72.10;;;;;;5134909;27;20035;-72
2022/10/08 04:08:37;;;;;;;7.05;1.80;;;13.10;72.20;;;;;;5134171;27;20050;-72
2022/10/08 04:11:04;;;;;;;7.35;2.00;;;13.10;72.30;;;;;;5117268;27;20131;-72
2022/10/08 04:13:30;;;;;;;6.68;1.55;;;13.10;72.60;;;;;;5134432;27;20071;-72
2022/10/08 04:16:01;;;;;;;6.18;1.77;;;13.10;72.80;;;;;;5134671;27;20070;-72
2022/10/08 04:18:27;;;;;;;6.55;1.80;;;13.10;72.90;;;;;;5134406;27;20435;-72
2022/10/08 04:21:00;;;;;;;5.63;2.03;;;13.10;73.40;;;;;;5134575;27;20045;-72
2022/10/08 04:23:27;;;;;;;4.50;1.80;;;13.10;73.00;;;;;;5133906;27;20508;-72
2022/10/08 04:25:53;;;;;;;5.50;1.50;;;13.10;73.10;;;;;;5134372;27;20031;-72
2022/10/08 04:28:19;;;;;;;5.50;1.60;;;13.10;73.10;;;;;;5134189;27;20043;-72
2022/10/08 04:31:03;;;;;;;4.15;1.50;;;13.10;73.20;;;;;;5134109;27;20104;-72
2022/10/08 04:33:31;;;;;;;8.45;1.95;;;13.20;73.30;;;;;;5116725;27;20048;-72
2022/10/08 04:35:57;;;;;;;6.22;1.58;;;13.10;73.30;;;;;;5133228;27;20531;-72
2022/10/08 04:38:23;;;;;;;6.00;1.60;;;13.10;73.30;;;;;;5134129;27;20043;-72
2022/10/08 04:41:06;;;;;;;6.90;2.00;;;13.10;73.40;;;;;;5133917;27;20459;-72
2022/10/08 04:43:33;;;;;;;5.93;1.50;;;13.20;73.50;;;;;;5133977;27;20391;-72
2022/10/08 04:45:59;;;;;;;6.65;2.20;;;13.20;73.40;;;;;;5133667;27;20136;-72
2022/10/08 04:48:25;;;;;;;7.25;2.08;;;13.20;73.50;;;;;;5133829;27;20482;-72
2022/10/08 04:51:03;;;;;;;7.13;2.17;;;13.20;73.50;;;;;;5133748;27;20114;-72
2022/10/08 04:53:29;;;;;;;5.82;1.50;;;13.20;73.60;;;;;;5133518;27;20122;-72
2022/10/08 04:55:56;;;;;;;6.68;1.73;;;13.20;73.90;;;;;;5116201;27;20117;-72
2022/10/08 04:58:23;;;;;;;6.72;1.80;;;13.20;73.80;;;;;;5133685;27;20039;-72
2022/10/08 05:00:50;;;;;;;5.68;1.38;;;13.20;73.30;;;;;;5133661;27;20524;-72
2022/10/08 05:03:16;;;;;;;4.55;1.52;;;13.20;73.10;;;;;;5133792;27;20451;-72
2022/10/08 05:05:44;;;;;;;6.45;1.30;;;13.20;73.00;;;;;;5099201;27;20066;-72
2022/10/08 05:08:10;;;;;;;6.90;1.40;;;13.20;72.80;;;;;;5133283;27;20066;-72
2022/10/08 05:10:36;;;;;;;5.18;2.00;;;13.20;72.70;;;;;;5133049;27;20042;-72
2022/10/08 05:13:02;;;;;;;5.57;1.65;;;13.20;72.60;;;;;;5133281;27;20402;-72
2022/10/08 05:15:28;;;;;;;2.95;1.08;;;13.20;72.50;;;;;;5133125;27;20077;-72
2022/10/08 05:17:53;;;;;;;4.75;1.48;;;13.20;72.80;;;;;;5116200;27;20054;-72
2022/10/08 05:20:19;;;;;;;6.85;1.60;;;13.10;72.20;;;;;;5133361;27;20070;-72
2022/10/08 05:22:45;;;;;;;4.72;1.20;;;13.10;72.10;;;;;;5133493;27;20050;-72
2022/10/08 05:25:10;;;;;;;3.97;1.25;;;13.10;72.00;;;;;;5132731;27;20047;-72
2022/10/08 05:27:36;;;;;;;4.95;1.33;;;13.10;71.90;;;;;;5115644;27;20035;-72
2022/10/08 05:30:03;;;;;;;4.15;1.30;;;13.10;71.80;;;;;;5133670;27;20031;-73
2022/10/08 05:32:28;;;;;;;8.68;2.08;;;13.10;71.70;;;;;;5132742;27;20039;-73
2022/10/08 05:34:54;;;;;;;6.95;1.40;;;13.10;71.60;;;;;;5115779;27;20435;-73
2022/10/08 05:37:20;;;;;;;3.75;1.40;;;13.10;71.50;;;;;;5132465;27;20062;-72
2022/10/08 05:39:46;;;;;;;4.25;1.10;;;13.10;71.40;;;;;;5132814;27;20055;-72
2022/10/08 05:42:12;;;;;;;4.50;1.30;;;13.00;71.30;;;;;;5132429;27;20104;-72
2022/10/08 05:44:38;;;;;;;5.88;1.70;;;13.00;71.20;;;;;;5132714;27;20054;-72
2022/10/08 05:47:04;;;;;;;5.32;1.50;;;13.00;71.10;;;;;;5132514;27;20039;-72
2022/10/08 05:49:30;;;;;;;4.88;1.15;;;13.00;71.00;;;;;;5132681;27;20038;-72
2022/10/08 05:51:55;;;;;;;3.50;1.42;;;13.00;70.90;;;;;;5132823;27;20035;-72
2022/10/08 05:54:21;;;;;;;2.72;1.25;;;13.00;70.90;;;;;;5115665;27;20039;-72
2022/10/08 05:56:47;;;;;;;5.40;1.30;;;13.00;70.90;;;;;;5114515;27;20432;-72
2022/10/08 05:59:23;;;;;;;5.20;1.80;;;12.90;70.80;;;;;;5132028;27;20042;-72
2022/10/08 06:01:50;;;;;;;5.07;1.65;;;13.00;70.70;;;;;;5132262;27;20039;-72
2022/10/08 06:04:17;;;;;;;4.30;1.63;;;12.90;70.70;;;;;;5132317;27;20082;-72
2022/10/08 06:06:43;;;;;;;4.18;1.83;;;12.90;70.70;;;;;;5132320;27;20386;-72
2022/10/08 06:09:15;;;;;;;5.38;1.42;;;12.90;70.70;;;;;;5132395;27;20396;-72
2022/10/08 06:11:41;;;;;;;5.93;1.73;;;12.90;70.80;;;;;;5132576;27;20046;-72
2022/10/08 06:14:10;;;;;;;3.95;1.50;;;12.90;70.80;;;;;;5132657;27;20039;-72
2022/10/08 06:16:36;;;;;;;6.80;1.92;;;12.80;70.80;;;;;;5132032;27;20035;-72
2022/10/08 06:19:03;;;;;;;5.68;1.67;;;12.90;71.00;;;;;;5132173;27;20047;-72
2022/10/08 06:21:29;;;;;;;5.32;1.80;;;12.80;71.00;;;;;;5132618;27;20046;-72
2022/10/08 06:24:00;;;;;;;8.73;1.75;;;12.80;71.20;;;;;;5132193;28;20114;-72
2022/10/08 06:26:28;;;;;;;6.20;1.98;;;12.80;71.40;;;;;;5132956;27;20739;-72
2022/10/08 06:28:54;;;;;;;5.43;1.50;;;12.80;71.50;;;;;;5136943;27;20074;-72
2022/10/08 06:31:21;;;;;;;7.60;2.17;;;12.70;71.60;;;;;;5119195;27;20478;-72
2022/10/08 06:33:47;;;;;;;6.90;1.98;;;12.70;71.70;;;;;;5136546;27;20508;-72
2022/10/08 06:36:18;;;;;;;5.75;1.60;;;12.70;71.80;;;;;;5135522;27;20031;-72
2022/10/08 06:38:56;;;;;;;7.95;2.17;;;12.70;72.00;;;;;;5133704;27;20517;-71
2022/10/08 06:41:22;;;;;;;5.53;1.60;;;12.70;72.00;;;;;;5136485;27;20050;-71
2022/10/08 06:43:48;;;;;;;9.15;1.80;;;12.70;72.00;;;;;;5135980;27;20486;-72
2022/10/08 06:46:14;;;;;;;6.50;1.90;;;12.70;72.10;;;;;;5117524;27;20086;-72
2022/10/08 06:48:40;;;;;;;7.80;2.40;;;12.70;72.20;;;;;;5146343;27;20083;-72
2022/10/08 06:51:11;;;;;;;6.38;1.70;;;12.70;72.30;;;;;;5120491;27;20035;-72
2022/10/08 06:53:37;;;;;;;5.07;1.42;;;12.70;72.40;;;;;;5118814;27;20067;-72
2022/10/08 06:56:06;;;;;;;7.72;2.00;;;12.70;72.40;;;;;;5138262;27;20060;-72
2022/10/08 06:58:34;;;;;;;7.95;2.33;;;12.70;72.50;;;;;;5146370;27;20045;-72
2022/10/08 07:01:08;;;;;;;6.57;1.48;;;12.70;72.70;;;;;;5134963;27;20429;-72
2022/10/08 07:03:35;;;;;;;7.05;1.50;;;12.70;72.70;;;;;;5135894;27;20557;-72
2022/10/08 07:06:02;;;;;;;6.40;1.60;;;12.70;72.70;;;;;;5135911;27;20035;-74
2022/10/08 07:08:29;;;;;;;7.78;1.90;;;12.70;72.80;;;;;;5118757;27;20039;-73
2022/10/08 07:11:01;;;;;;;7.55;2.58;;;12.70;72.80;;;;;;5109638;27;20031;-73
2022/10/08 07:13:28;;;;;;;11.07;3.28;;;12.70;73.30;;;;;;5135393;27;20046;-73
2022/10/08 07:16:07;;;;;;;9.27;2.58;;;12.70;72.90;;;;;;5118886;27;20045;-73
2022/10/08 07:18:34;;;;;;;7.40;2.10;;;12.80;73.00;;;;;;5118419;27;20047;-72
2022/10/08 07:21:00;;;;;;;8.50;1.90;;;12.80;73.00;;;;;;5135753;27;20039;-73
2022/10/08 07:23:26;;;;;;;7.90;2.05;;;12.70;72.90;;;;;;5135591;27;20118;-73
2022/10/08 07:26:03;;;;;;;9.95;2.53;;;12.70;72.90;;;;;;5117954;27;20058;-73
2022/10/08 07:28:33;;;;;;;8.80;2.63;;;12.80;72.90;;;;;;5134062;27;20071;-73
2022/10/08 07:31:06;;;;;;;11.50;2.83;;;12.80;72.90;;;;;;5147312;27;20035;-73
2022/10/08 07:33:33;;;;;;;14.40;2.97;;;12.80;72.90;;;;;;5132620;27;20541;-73
2022/10/08 07:36:10;;;;;;;9.73;3.28;;;12.80;72.80;;;;;;5133832;27;20355;-73
2022/10/08 07:38:36;;;;;;;10.57;3.20;;;12.80;72.80;;;;;;5149550;27;20047;-73
2022/10/08 07:41:02;;;;;;;7.97;2.45;;;12.80;72.80;;;;;;5146961;27;20057;-73
2022/10/08 07:43:28;;;;;;;11.57;2.83;;;12.80;72.70;;;;;;5150123;27;20477;-72
2022/10/08 07:45:54;;;;;;;16.17;3.55;;;12.90;72.80;;;;;;5150024;27;20517;-72
2022/10/08 07:48:19;;;;;;;13.23;3.88;;;12.90;72.80;;;;;;5132033;27;20060;-73
2022/10/08 07:50:45;;;;;;;14.10;4.20;;;12.90;73.00;;;;;;5151072;27;20123;-72
2022/10/08 07:53:11;;;;;;;10.85;4.20;;;12.90;73.10;;;;;;5131646;27;20046;-72
2022/10/08 07:55:36;;;;;;;15.35;4.50;;;12.90;73.00;;;;;;5149803;27;20035;-73
2022/10/08 07:58:03;;;;;;;14.63;4.68;;;13.00;73.30;;;;;;5151200;27;20050;-73
2022/10/08 08:00:29;;;;;;;10.75;3.90;;;13.10;73.70;;;;;;5149162;27;20046;-73
2022/10/08 08:02:54;;;;;;;10.38;4.40;;;13.10;73.90;;;;;;5147175;27;20039;-73
2022/10/08 08:05:20;;;;;;;12.18;3.88;;;13.30;73.90;;;;;;5149442;27;20054;-73
2022/10/08 08:07:46;;;;;;;14.00;3.30;;;13.40;73.80;;;;;;5133021;27;20547;-73
2022/10/08 08:10:12;;;;;;;7.03;2.20;;;13.60;73.70;;;;;;5151167;27;20062;-73
2022/10/08 08:12:38;;;;;;;8.55;2.30;;;13.80;73.20;;;;;;5151755;27;20066;-73
2022/10/08 08:15:04;;;;;;;10.70;2.33;;;14.00;72.80;;;;;;5131606;27;20030;-73
2022/10/08 08:17:29;;;;;;;5.88;1.45;;;14.20;72.20;;;;;;5145360;27;20035;-73
2022/10/08 08:19:55;;;;;;;8.88;1.40;;;14.40;71.40;;;;;;5148602;27;20122;-73
2022/10/08 08:22:21;;;;;;;7.80;1.85;;;14.60;70.80;;;;;;5133037;27;20042;-73
2022/10/08 08:24:46;;;;;;;6.10;1.20;;;14.90;70.10;;;;;;5149562;27;20122;-73
2022/10/08 08:27:12;;;;;;;6.07;1.35;;;15.10;69.20;;;;;;5148892;27;20047;-73
2022/10/08 08:29:38;;;;;;;5.95;1.20;;;15.30;68.40;;;;;;5149569;27;20034;-73
2022/10/08 08:32:04;;;;;;;5.25;1.25;;;15.50;67.60;;;;;;5150443;27;20035;-73
2022/10/08 08:34:30;;;;;;;5.18;1.10;;;15.60;66.90;;;;;;5149922;27;20026;-73
2022/10/08 08:36:58;;;;;;;7.45;1.33;;;15.80;66.50;;;;;;5147000;27;20042;-73
2022/10/08 08:39:26;;;;;;;9.88;1.60;;;16.00;65.50;;;;;;5149954;27;20038;-73
2022/10/08 08:42:19;;;;;;;6.35;1.60;;;16.10;64.80;;;;;;5149116;27;20063;-73
2022/10/08 08:44:55;;;;;;;7.50;1.50;;;16.30;63.80;;;;;;5149085;27;20117;-73
2022/10/08 08:47:39;;;;;;;5.80;1.50;;;16.40;62.90;;;;;;5132712;27;20061;-73
2022/10/08 08:50:13;;;;;;;5.73;1.13;;;16.50;61.90;;;;;;5145551;27;20066;-74
2022/10/08 08:52:41;;;;;;;6.18;1.25;;;16.50;62.00;;;;;;5147628;27;20187;-73
2022/10/08 08:55:18;;;;;;;8.07;1.30;;;16.60;61.70;;;;;;5147962;27;20038;-73
2022/10/08 08:58:13;;;;;;;7.63;1.52;;;16.70;61.00;;;;;;5148778;27;20070;-73
2022/10/08 09:00:43;;;;;;;5.72;1.30;;;16.70;60.90;;;;;;5148951;27;20043;-73
2022/10/08 09:03:20;;;;;;;6.13;1.40;;;16.80;61.10;;;;;;5147197;27;20122;-73
2022/10/08 09:05:49;;;;;;;6.68;1.27;;;16.80;60.20;;;;;;5146011;27;20035;-73
2022/10/08 09:08:21;;;;;;;5.72;1.05;;;16.90;59.90;;;;;;5148979;27;20070;-73
2022/10/08 09:11:00;;;;;;;4.53;1.20;;;16.90;60.00;;;;;;5148060;27;20046;-73
2022/10/08 09:13:46;;;;;;;11.95;1.70;;;17.00;59.60;;;;;;5148642;27;20074;-73
2022/10/08 09:16:12;;;;;;;7.50;1.70;;;17.00;59.00;;;;;;5107914;27;20097;-73
2022/10/08 09:18:49;;;;;;;4.50;1.40;;;17.00;59.00;;;;;;5147454;27;20038;-73
2022/10/08 09:21:15;;;;;;;6.68;1.73;;;17.10;59.00;;;;;;5147111;27;20065;-73
2022/10/08 09:23:41;;;;;;;4.55;1.15;;;17.10;58.80;;;;;;5131952;27;20073;-73
2022/10/08 09:26:07;;;;;;;7.47;1.20;;;17.10;58.30;;;;;;5148191;27;20062;-73
2022/10/08 09:28:42;;;;;;;6.15;1.35;;;17.10;58.50;;;;;;5143864;27;20083;-73
2022/10/08 09:31:10;;;;;;;6.05;1.20;;;17.00;57.80;;;;;;5147737;27;20031;-73
2022/10/08 09:33:38;;;;;;;7.88;1.17;;;17.00;57.70;;;;;;5146394;27;20041;-73
2022/10/08 09:36:05;;;;;;;10.50;1.30;;;17.00;57.10;;;;;;5147345;27;20113;-73
2022/10/08 09:38:36;;;;;;;6.10;1.30;;;16.90;56.80;;;;;;5147562;27;20050;-73
2022/10/08 09:41:06;;;;;;;4.72;1.13;;;16.80;57.00;;;;;;5144145;27;20104;-73
2022/10/08 09:43:34;;;;;;;8.43;1.58;;;16.80;57.10;;;;;;5144647;27;20123;-73
2022/10/08 09:46:10;;;;;;;6.47;1.20;;;16.80;57.00;;;;;;5147040;27;20105;-73
2022/10/08 09:48:36;;;;;;;6.82;1.77;;;16.80;57.30;;;;;;5146826;27;20077;-73
2022/10/08 09:51:16;;;;;;;5.57;1.70;;;16.70;57.70;;;;;;5115070;27;20699;-73
2022/10/08 09:53:53;;;;;;;7.75;1.20;;;16.80;57.40;;;;;;5132155;27;20043;-73
2022/10/08 09:56:26;;;;;;;7.00;1.55;;;16.70;57.50;;;;;;5132498;27;20509;-73
2022/10/08 09:58:56;;;;;;;6.22;0.95;;;16.70;57.10;;;;;;5113194;27;20039;-73
2022/10/08 10:01:25;;;;;;;7.32;1.20;;;16.70;56.80;;;;;;5131705;27;20554;-73
2022/10/08 10:04:00;;;;;;;8.10;1.15;;;16.70;56.80;;;;;;5132246;27;20122;-73
2022/10/08 10:06:37;;;;;;;6.40;1.63;;;16.70;56.70;;;;;;5132025;27;20071;-73
2022/10/08 10:09:21;;;;;;;5.38;1.10;;;16.70;57.00;;;;;;5132311;27;20368;-73
2022/10/08 10:12:01;;;;;;;6.43;1.17;;;16.70;57.50;;;;;;5132024;27;20041;-73
2022/10/08 10:14:44;;;;;;;9.20;1.50;;;16.70;57.60;;;;;;5132310;27;20478;-73
2022/10/08 10:17:32;;;;;;;3.47;0.88;;;16.70;56.10;;;;;;5131875;27;20087;-73
2022/10/08 10:20:13;;;;;;;7.10;1.27;;;16.70;56.10;;;;;;5131635;27;20100;-73
2022/10/08 10:22:45;;;;;;;5.85;1.15;;;16.60;56.30;;;;;;5111979;28;20040;-73
2022/10/08 10:25:14;;;;;;;7.88;1.10;;;16.50;56.60;;;;;;5123639;27;20047;-73
2022/10/08 10:27:46;;;;;;;5.68;1.40;;;16.50;57.20;;;;;;5131986;27;20043;-73
2022/10/08 10:30:12;;;;;;;6.68;1.52;;;16.50;57.60;;;;;;5131809;27;20372;-73
2022/10/08 10:32:49;;;;;;;6.15;1.02;;;16.50;57.70;;;;;;5132133;28;20050;-73
2022/10/08 10:35:22;;;;;;;5.97;1.00;;;16.50;57.80;;;;;;5131229;27;20041;-73
2022/10/08 10:38:11;;;;;;;5.13;1.20;;;16.60;57.60;;;;;;5111887;28;20118;-73
2022/10/08 10:40:56;;;;;;;7.55;1.40;;;16.60;57.70;;;;;;5122719;27;20047;-73
2022/10/08 10:43:47;;;;;;;5.55;1.63;;;16.60;57.30;;;;;;5131982;28;20550;-73
2022/10/08 10:46:21;;;;;;;6.95;1.20;;;16.60;57.10;;;;;;5132248;28;20493;-73
2022/10/08 10:48:46;;;;;;;4.38;1.40;;;16.50;56.50;;;;;;5131767;27;20078;-72
2022/10/08 10:51:44;;;;;;;5.53;1.40;;;16.40;55.60;;;;;;5131499;28;20447;-73
2022/10/08 10:54:36;;;;;;;6.82;1.02;;;16.30;54.70;;;;;;5131583;28;20578;-73
2022/10/08 10:57:11;;;;;;;8.57;1.20;;;16.30;54.50;;;;;;5131276;28;20043;-73
2022/10/08 10:59:54;;;;;;;6.72;1.13;;;16.20;54.60;;;;;;5132324;28;20163;-73
2022/10/08 11:02:39;;;;;;;8.15;1.20;;;16.20;55.30;;;;;;5132071;28;20080;-73
2022/10/08 11:05:26;;;;;;;6.93;1.35;;;16.20;55.60;;;;;;5132052;27;20051;-73
2022/10/08 11:07:51;;;;;;;9.80;1.45;;;16.20;54.70;;;;;;5131407;28;20413;-73
2022/10/08 11:10:28;;;;;;;5.60;1.00;;;16.10;55.30;;;;;;5131798;28;20043;-73
2022/10/08 11:13:11;;;;;;;5.03;0.88;;;16.10;55.00;;;;;;5133454;27;20493;-73
2022/10/08 11:15:41;;;;;;;5.85;1.13;;;16.10;54.80;;;;;;5135294;27;20043;-73
2022/10/08 11:18:23;;;;;;;5.57;1.55;;;16.00;55.00;;;;;;5135759;27;20050;-73
2022/10/08 11:21:01;;;;;;;6.25;1.30;;;16.00;55.00;;;;;;5135375;27;20555;-73
2022/10/08 11:23:38;;;;;;;5.03;0.90;;;16.00;55.00;;;;;;5134855;27;20043;-73
2022/10/08 11:26:26;;;;;;;4.40;1.17;;;15.90;54.90;;;;;;5135638;27;20054;-73
2022/10/08 11:29:05;;;;;;;5.32;1.25;;;15.90;54.80;;;;;;5135547;27;20072;-76
2022/10/08 11:31:42;;;;;;;6.38;1.42;;;15.90;55.10;;;;;;5136039;27;20062;-77
2022/10/08 11:34:33;;;;;;;8.63;1.27;;;15.90;55.40;;;;;;5135332;27;20035;-77
2022/10/08 11:37:51;;;;;;;4.15;0.98;;;15.90;55.90;;;;;;5136001;27;20073;-76
2022/10/08 11:40:42;;;;;;;9.48;1.20;;;15.90;56.00;;;;;;5055951;28;20067;-76
2022/10/08 11:43:35;;;;;;;4.68;1.27;;;15.90;54.70;;;;;;5115475;27;20057;-75
2022/10/08 11:46:27;;;;;;;7.40;1.40;;;15.90;55.00;;;;;;5135637;27;20473;-75
2022/10/08 11:48:54;;;;;;;7.07;1.58;;;16.00;55.60;;;;;;5118124;27;20043;-75
2022/10/08 11:51:20;;;;;;;7.85;1.35;;;16.00;55.00;;;;;;5135422;27;20039;-75
2022/10/08 11:54:01;;;;;;;6.15;1.50;;;16.10;54.70;;;;;;5135527;27;20035;-75
2022/10/08 11:56:27;;;;;;;8.13;1.20;;;16.10;54.30;;;;;;5118244;27;20118;-75
2022/10/08 11:58:55;;;;;;;8.40;1.77;;;16.20;55.00;;;;;;5132098;27;20118;-75
2022/10/08 12:01:21;;;;;;;6.93;1.90;;;16.20;54.50;;;;;;5128525;27;20039;-75
2022/10/08 12:04:15;;;;;;;5.95;1.02;;;16.30;53.80;;;;;;5142154;27;20050;-75
2022/10/08 12:06:42;;;;;;;5.28;1.05;;;16.30;53.10;;;;;;5134755;27;20043;-75
2022/10/08 12:09:21;;;;;;;7.47;3.40;;;16.20;53.60;;;;;;5117600;27;20122;-75
2022/10/08 12:11:49;;;;;;;5.95;1.85;;;16.20;53.70;;;;;;5140974;27;20638;-72
2022/10/08 12:14:15;;;;;;;5.30;1.50;;;16.20;53.80;;;;;;5148774;27;20466;-72
2022/10/08 12:16:47;;;;;;;7.85;2.17;;;16.20;53.90;;;;;;5147256;27;20046;-72
2022/10/08 12:19:34;;;;;;;5.43;1.65;;;16.20;53.90;;;;;;5149347;27;20042;-72
2022/10/08 12:22:16;;;;;;;4.25;1.40;;;16.20;54.10;;;;;;5149781;27;20519;-72
2022/10/08 12:24:45;;;;;;;6.32;1.52;;;16.30;54.10;;;;;;5146601;27;20512;-73
2022/10/08 12:27:17;;;;;;;7.82;1.92;;;16.30;53.90;;;;;;5147761;27;20111;-73
2022/10/08 12:30:04;;;;;;;6.20;1.80;;;16.30;54.00;;;;;;5137924;27;20072;-73
2022/10/08 12:32:53;;;;;;;6.78;1.40;;;16.30;54.00;;;;;;5133380;27;20031;-72
2022/10/08 12:35:24;;;;;;;5.93;1.50;;;16.40;53.70;;;;;;5124001;27;20031;-72
2022/10/08 12:38:02;;;;;;;5.90;1.10;;;16.40;53.70;;;;;;5134184;27;20046;-72
2022/10/08 12:40:58;;;;;;;7.93;1.42;;;16.40;53.70;;;;;;5154148;27;20042;-72
2022/10/08 12:43:40;;;;;;;6.80;1.23;;;16.40;53.60;;;;;;5132008;27;20073;-72
2022/10/08 12:46:21;;;;;;;4.65;1.20;;;16.40;53.60;;;;;;5150599;27;20502;-72
2022/10/08 12:48:58;;;;;;;5.00;1.27;;;16.50;53.60;;;;;;5131976;27;20042;-75
2022/10/08 12:51:32;;;;;;;5.60;1.15;;;16.60;53.20;;;;;;5150045;27;20096;-72
2022/10/08 12:53:58;;;;;;;6.38;1.02;;;16.60;52.70;;;;;;5140780;27;20041;-72
2022/10/08 12:56:27;;;;;;;8.40;1.40;;;16.60;53.10;;;;;;5133446;27;20046;-72
2022/10/08 12:58:56;;;;;;;7.13;1.25;;;16.60;53.30;;;;;;5132220;27;20043;-75
2022/10/08 13:01:23;;;;;;;4.47;1.38;;;16.60;52.20;;;;;;5133019;27;20039;-73
2022/10/08 13:04:25;;;;;;;6.65;1.20;;;16.60;52.20;;;;;;5133536;27;20046;-72
2022/10/08 13:06:53;;;;;;;7.85;1.38;;;16.60;52.20;;;;;;5133019;27;20054;-72
2022/10/08 13:09:30;;;;;;;5.05;1.25;;;16.70;52.30;;;;;;5133584;27;20038;-72
2022/10/08 13:12:02;;;;;;;5.97;1.17;;;16.70;52.50;;;;;;5133401;27;20046;-72